createdAt,value
2018-01-26T00:00:37.956Z,9.25
2018-01-26T00:03:09.071Z,9.21
2018-01-26T00:05:40.177Z,9.19
2018-01-26T00:08:11.298Z,9.21
2018-01-26T00:10:42.336Z,9.21
2018-01-26T00:13:13.579Z,9.20
2018-01-26T00:15:44.627Z,9.20
2018-01-26T00:18:15.726Z,9.19
2018-01-26T00:20:46.791Z,9.11
2018-01-26T00:23:17.915Z,9.10
2018-01-26T00:25:48.985Z,9.09
2018-01-26T00:28:20.080Z,9.07
2018-01-26T00:30:51.149Z,9.11
2018-01-26T00:33:22.272Z,9.11
2018-01-26T00:35:53.329Z,9.04
2018-01-26T00:38:24.474Z,9.04
2018-01-26T00:40:55.562Z,8.98
2018-01-26T00:43:26.707Z,8.85
2018-01-26T00:45:57.838Z,8.87
2018-01-26T00:48:28.921Z,8.90
2018-01-26T00:51:00.074Z,8.86
2018-01-26T00:53:31.131Z,8.84
2018-01-26T00:56:02.260Z,8.77
2018-01-26T00:58:33.507Z,8.78
2018-01-26T01:01:04.583Z,8.81
2018-01-26T01:03:42.689Z,8.84
2018-01-26T01:06:13.764Z,8.87
2018-01-26T01:08:44.923Z,8.86
2018-01-26T01:11:15.981Z,8.85
2018-01-26T01:13:47.092Z,8.86
2018-01-26T01:16:18.155Z,8.87
2018-01-26T01:18:49.251Z,8.88
2018-01-26T01:21:20.366Z,8.86
2018-01-26T01:23:51.472Z,8.80
2018-01-26T01:26:22.523Z,8.72
2018-01-26T01:28:53.723Z,8.72
2018-01-26T01:31:24.816Z,8.71
2018-01-26T01:33:55.951Z,8.66
2018-01-26T01:36:27.777Z,8.65
2018-01-26T01:38:58.878Z,8.55
2018-01-26T01:41:30.941Z,8.48
2018-01-26T01:44:02.086Z,8.41
2018-01-26T01:46:33.137Z,8.30
2018-01-26T01:49:15.396Z,8.31
2018-01-26T01:51:46.533Z,8.25
2018-01-26T01:54:17.664Z,8.15
2018-01-26T01:56:48.756Z,8.18
2018-01-26T01:59:19.907Z,8.10
2018-01-26T02:01:50.991Z,8.05
2018-01-26T02:04:22.115Z,8.09
2018-01-26T02:06:53.167Z,8.12
2018-01-26T02:09:24.355Z,8.17
2018-01-26T02:11:55.434Z,8.21
2018-01-26T02:14:26.571Z,8.18
2018-01-26T02:16:57.590Z,8.17
2018-01-26T02:19:28.716Z,8.16
2018-01-26T02:21:59.823Z,8.14
2018-01-26T02:24:30.868Z,8.13
2018-01-26T02:27:02.012Z,8.03
2018-01-26T02:29:33.056Z,8.01
2018-01-26T02:32:04.164Z,8.03
2018-01-26T02:34:35.408Z,8.03
2018-01-26T02:37:06.472Z,8.05
2018-01-26T02:39:37.516Z,8.06
2018-01-26T02:42:08.611Z,8.07
2018-01-26T02:44:39.713Z,8.12
2018-01-26T02:47:10.804Z,8.06
2018-01-26T02:49:41.924Z,7.96
2018-01-26T02:52:13.111Z,7.89
2018-01-26T02:54:44.258Z,7.88
2018-01-26T02:57:15.328Z,7.93
2018-01-26T02:59:46.440Z,7.95
2018-01-26T03:02:17.529Z,7.91
2018-01-26T03:04:48.626Z,7.89
2018-01-26T03:07:25.777Z,7.88
2018-01-26T03:09:57.101Z,7.93
2018-01-26T03:12:29.022Z,7.90
2018-01-26T03:15:00.096Z,7.93
2018-01-26T03:17:31.188Z,7.98
2018-01-26T03:20:02.278Z,8.00
2018-01-26T03:22:33.522Z,7.98
2018-01-26T03:25:04.614Z,7.87
2018-01-26T03:27:36.471Z,7.79
2018-01-26T03:30:07.572Z,7.75
2018-01-26T03:32:38.697Z,7.68
2018-01-26T03:35:09.749Z,7.66
2018-01-26T03:37:40.843Z,7.67
2018-01-26T03:40:11.962Z,7.60
2018-01-26T03:42:43.708Z,7.55
2018-01-26T03:45:14.841Z,7.50
2018-01-26T03:47:45.930Z,7.41
2018-01-26T03:50:17.128Z,7.38
2018-01-26T03:52:48.175Z,7.33
2018-01-26T03:55:19.349Z,7.31
2018-01-26T03:57:50.429Z,7.28
2018-01-26T04:00:21.549Z,7.28
2018-01-26T04:02:52.602Z,7.25
2018-01-26T04:05:23.741Z,7.26
2018-01-26T04:07:54.875Z,7.22
2018-01-26T04:10:26.058Z,7.15
2018-01-26T04:12:57.157Z,7.07
2018-01-26T04:15:28.294Z,6.99
2018-01-26T04:17:59.441Z,6.91
2018-01-26T04:20:30.504Z,6.86
2018-01-26T04:23:01.650Z,6.76
2018-01-26T04:25:32.700Z,6.69
2018-01-26T04:28:03.780Z,6.60
2018-01-26T04:30:34.874Z,6.51
2018-01-26T04:33:06.090Z,6.50
2018-01-26T04:35:37.173Z,6.46
2018-01-26T04:38:08.312Z,6.46
2018-01-26T04:40:39.349Z,6.44
2018-01-26T04:43:10.485Z,6.39
2018-01-26T04:45:41.578Z,6.30
2018-01-26T04:48:12.678Z,6.31
2018-01-26T04:50:43.877Z,6.31
2018-01-26T04:53:14.968Z,6.34
2018-01-26T04:55:46.127Z,6.37
2018-01-26T04:58:17.239Z,6.38
2018-01-26T05:00:48.297Z,6.39
2018-01-26T05:03:19.382Z,6.36
2018-01-26T05:05:50.458Z,6.34
2018-01-26T05:08:21.931Z,6.35
2018-01-26T05:10:53.184Z,6.33
2018-01-26T05:13:24.239Z,6.23
2018-01-26T05:15:55.265Z,6.15
2018-01-26T05:18:26.334Z,6.10
2018-01-26T05:20:57.444Z,5.99
2018-01-26T05:23:28.525Z,5.92
2018-01-26T05:25:59.857Z,5.90
2018-01-26T05:28:30.936Z,5.90
2018-01-26T05:31:02.023Z,5.76
2018-01-26T05:33:33.146Z,5.76
2018-01-26T05:36:04.257Z,5.66
2018-01-26T05:38:35.358Z,5.66
2018-01-26T05:41:06.405Z,5.67
2018-01-26T05:43:37.466Z,5.69
2018-01-26T05:46:08.569Z,5.61
2018-01-26T05:48:40.258Z,5.57
2018-01-26T05:51:11.340Z,5.53
2018-01-26T05:53:42.421Z,5.59
2018-01-26T05:56:14.431Z,5.58
2018-01-26T05:58:45.498Z,5.58
2018-01-26T06:01:16.637Z,5.49
2018-01-26T06:03:47.688Z,5.47
2018-01-26T06:06:19.413Z,5.46
2018-01-26T06:08:50.501Z,5.44
2018-01-26T06:11:21.568Z,5.42
2018-01-26T06:13:52.628Z,5.48
2018-01-26T06:16:23.747Z,5.53
2018-01-26T06:18:54.839Z,5.58
2018-01-26T06:21:25.944Z,5.63
2018-01-26T06:23:56.996Z,5.63
2018-01-26T06:26:28.095Z,5.57
2018-01-26T06:28:59.152Z,5.58
2018-01-26T06:31:30.277Z,5.59
2018-01-26T06:34:01.333Z,5.59
2018-01-26T06:36:32.468Z,5.63
2018-01-26T06:39:03.676Z,5.72
2018-01-26T06:41:34.760Z,5.74
2018-01-26T06:44:05.847Z,5.77
2018-01-26T06:46:36.934Z,5.82
2018-01-26T06:49:08.057Z,5.90
2018-01-26T06:51:39.244Z,5.90
2018-01-26T06:54:10.340Z,5.81
2018-01-26T06:56:41.467Z,5.66
2018-01-26T06:59:12.550Z,5.52
2018-01-26T07:01:43.725Z,5.36
2018-01-26T07:04:14.766Z,5.27
2018-01-26T07:06:45.911Z,5.15
2018-01-26T07:09:17.030Z,5.20
2018-01-26T07:11:48.138Z,5.23
2018-01-26T07:14:19.249Z,5.11
2018-01-26T07:16:50.354Z,5.16
2018-01-26T07:19:21.594Z,5.17
2018-01-26T07:21:52.824Z,5.20
2018-01-26T07:24:23.980Z,5.20
2018-01-26T07:26:55.100Z,5.17
2018-01-26T07:29:26.214Z,5.31
2018-01-26T07:31:57.242Z,5.48
2018-01-26T07:34:28.397Z,5.66
2018-01-26T07:36:59.546Z,5.78
2018-01-26T07:39:30.700Z,5.91
2018-01-26T07:42:01.772Z,6.05
2018-01-26T07:44:32.860Z,6.03
2018-01-26T07:47:03.934Z,5.98
2018-01-26T07:49:35.137Z,5.86
2018-01-26T07:52:06.183Z,5.98
2018-01-26T07:54:37.349Z,6.12
2018-01-26T07:57:08.412Z,6.07
2018-01-26T07:59:39.581Z,5.92
2018-01-26T08:02:11.025Z,6.00
2018-01-26T08:04:42.163Z,6.16
2018-01-26T08:07:13.272Z,6.35
2018-01-26T08:09:44.440Z,6.58
2018-01-26T08:12:15.533Z,6.73
2018-01-26T08:14:46.629Z,6.72
2018-01-26T08:17:17.733Z,6.71
2018-01-26T08:19:48.834Z,6.77
2018-01-26T08:22:21.474Z,6.78
2018-01-26T08:24:52.587Z,7.05
2018-01-26T08:27:23.689Z,7.15
2018-01-26T08:29:54.804Z,7.24
2018-01-26T08:32:25.949Z,7.44
2018-01-26T08:34:57.076Z,7.31
2018-01-26T08:37:28.232Z,7.21
2018-01-26T08:39:59.359Z,7.47
2018-01-26T08:42:30.433Z,7.63
2018-01-26T08:45:01.506Z,7.93
2018-01-26T08:47:32.587Z,7.81
2018-01-26T08:50:03.764Z,7.85
2018-01-26T08:52:34.838Z,7.94
2018-01-26T08:55:08.981Z,7.63
2018-01-26T08:57:40.088Z,7.62
2018-01-26T09:00:11.320Z,7.73
2018-01-26T09:02:42.420Z,7.73
2018-01-26T09:05:13.517Z,7.52
2018-01-26T09:07:44.618Z,7.36
2018-01-26T09:10:15.790Z,7.22
2018-01-26T09:12:46.868Z,7.43
2018-01-26T09:15:18.211Z,7.89
2018-01-26T09:17:49.276Z,8.36
2018-01-26T09:20:20.345Z,8.70
2018-01-26T09:22:51.470Z,8.34
2018-01-26T09:25:22.662Z,8.19
2018-01-26T09:27:53.789Z,8.09
2018-01-26T09:30:24.922Z,8.42
2018-01-26T09:32:56.032Z,8.75
2018-01-26T09:35:27.181Z,8.80
2018-01-26T09:37:58.302Z,8.79
2018-01-26T09:40:29.463Z,8.88
2018-01-26T09:43:00.594Z,9.13
2018-01-26T09:45:31.737Z,9.34
2018-01-26T09:48:02.890Z,9.48
2018-01-26T09:50:34.090Z,9.60
2018-01-26T09:53:05.159Z,9.45
2018-01-26T09:55:36.341Z,9.51
2018-01-26T09:58:07.444Z,9.57
2018-01-26T10:00:39.147Z,9.66
2018-01-26T10:03:10.194Z,9.56
2018-01-26T10:05:41.344Z,9.55
2018-01-26T10:08:12.440Z,9.47
2018-01-26T10:10:43.533Z,9.20
2018-01-26T10:13:14.651Z,8.96
2018-01-26T10:15:45.777Z,9.08
2018-01-26T10:18:16.881Z,9.13
2018-01-26T10:20:48.008Z,9.04
2018-01-26T10:23:19.098Z,9.07
2018-01-26T10:25:50.176Z,9.24
2018-01-26T10:28:21.267Z,9.46
2018-01-26T10:30:52.402Z,9.74
2018-01-26T10:33:23.656Z,9.78
2018-01-26T10:35:54.766Z,10.02
2018-01-26T10:38:25.791Z,10.19
2018-01-26T10:40:56.933Z,10.30
2018-01-26T10:43:28.082Z,10.35
2018-01-26T10:45:59.225Z,10.53
2018-01-26T10:48:30.278Z,10.88
2018-01-26T10:51:01.381Z,11.50
2018-01-26T10:53:32.466Z,12.25
2018-01-26T10:56:03.621Z,13.32
2018-01-26T10:58:34.710Z,14.14
2018-01-26T11:01:05.741Z,14.84
2018-01-26T11:03:36.850Z,15.68
2018-01-26T11:06:07.995Z,16.17
2018-01-26T11:08:39.049Z,16.29
2018-01-26T11:11:10.209Z,15.45
2018-01-26T11:13:41.255Z,14.87
2018-01-26T11:16:12.393Z,14.39
2018-01-26T11:18:43.476Z,14.02
2018-01-26T11:21:14.637Z,14.05
2018-01-26T11:23:46.207Z,13.62
2018-01-26T11:26:17.394Z,13.91
2018-01-26T11:28:48.430Z,13.85
2018-01-26T11:31:19.606Z,14.01
2018-01-26T11:33:50.795Z,14.78
2018-01-26T11:36:21.849Z,15.04
2018-01-26T11:38:52.992Z,14.73
2018-01-26T11:41:24.146Z,14.60
2018-01-26T11:43:55.244Z,14.10
2018-01-26T11:46:26.267Z,13.75
2018-01-26T11:48:57.461Z,13.40
2018-01-26T11:51:28.486Z,13.31
2018-01-26T11:53:59.592Z,13.33
2018-01-26T11:56:30.644Z,13.21
2018-01-26T11:59:01.735Z,13.22
2018-01-26T12:01:32.796Z,13.38
2018-01-26T12:04:04.192Z,13.59
2018-01-26T12:06:35.312Z,13.35
2018-01-26T12:09:06.442Z,13.53
2018-01-26T12:11:37.524Z,13.81
2018-01-26T12:14:08.625Z,13.91
2018-01-26T12:16:39.696Z,13.91
2018-01-26T12:19:10.836Z,13.98
2018-01-26T12:21:42.110Z,14.21
2018-01-26T12:24:13.246Z,14.46
2018-01-26T12:26:44.286Z,14.49
2018-01-26T12:29:15.478Z,14.28
2018-01-26T12:31:46.557Z,14.52
2018-01-26T12:34:17.670Z,14.60
2018-01-26T12:36:48.795Z,14.58
2018-01-26T12:39:19.913Z,14.21
2018-01-26T12:41:51.091Z,13.86
2018-01-26T12:44:22.171Z,13.44
2018-01-26T12:46:53.289Z,13.44
2018-01-26T12:49:24.372Z,13.31
2018-01-26T12:51:55.516Z,12.93
2018-01-26T12:54:26.589Z,12.87
2018-01-26T12:56:57.644Z,12.98
2018-01-26T12:59:28.782Z,13.38
2018-01-26T13:01:59.854Z,13.55
2018-01-26T13:04:31.556Z,13.01
2018-01-26T13:07:03.381Z,12.85
2018-01-26T13:09:34.452Z,12.58
2018-01-26T13:12:05.966Z,12.57
2018-01-26T13:14:37.067Z,12.36
2018-01-26T13:17:08.164Z,12.12
2018-01-26T13:19:39.307Z,11.81
2018-01-26T13:22:10.484Z,11.62
2018-01-26T13:24:41.596Z,11.33
2018-01-26T13:27:12.667Z,11.33
2018-01-26T13:29:43.844Z,11.43
2018-01-26T13:32:14.885Z,11.55
2018-01-26T13:34:46.087Z,11.89
2018-01-26T13:37:17.134Z,12.55
2018-01-26T13:39:48.303Z,13.06
2018-01-26T13:42:19.459Z,13.31
2018-01-26T13:44:50.534Z,13.50
2018-01-26T13:47:21.642Z,13.48
2018-01-26T13:49:52.690Z,13.35
2018-01-26T13:52:23.821Z,12.98
2018-01-26T13:54:54.889Z,12.72
2018-01-26T13:57:26.061Z,12.41
2018-01-26T13:59:57.152Z,12.25
2018-01-26T14:02:28.305Z,12.22
2018-01-26T14:04:59.452Z,12.37
2018-01-26T14:07:31.149Z,12.48
2018-01-26T14:10:02.423Z,12.66
2018-01-26T14:12:33.454Z,12.75
2018-01-26T14:15:05.294Z,12.63
2018-01-26T14:17:36.404Z,12.47
2018-01-26T14:20:07.564Z,12.40
2018-01-26T14:22:38.617Z,12.31
2018-01-26T14:25:09.750Z,12.09
2018-01-26T14:27:40.841Z,11.85
2018-01-26T14:30:12.112Z,11.65
2018-01-26T14:32:43.201Z,11.51
2018-01-26T14:35:14.296Z,11.31
2018-01-26T14:37:45.365Z,11.20
2018-01-26T14:40:16.525Z,11.12
2018-01-26T14:42:47.626Z,11.06
2018-01-26T14:45:18.792Z,10.99
2018-01-26T14:47:49.884Z,10.98
2018-01-26T14:50:20.997Z,10.95
2018-01-26T14:52:52.132Z,10.89
2018-01-26T14:55:23.288Z,10.89
2018-01-26T14:57:54.385Z,10.91
2018-01-26T15:00:25.508Z,10.93
2018-01-26T15:02:56.593Z,11.01
2018-01-26T15:05:27.754Z,11.06
2018-01-26T15:07:58.851Z,11.09
2018-01-26T15:10:29.899Z,11.10
2018-01-26T15:13:01.219Z,11.05
2018-01-26T15:15:32.287Z,10.97
2018-01-26T15:18:03.457Z,10.95
2018-01-26T15:20:34.577Z,10.95
2018-01-26T15:23:05.845Z,11.01
2018-01-26T15:25:37.056Z,11.04
2018-01-26T15:28:08.272Z,11.01
2018-01-26T15:30:39.395Z,10.98
2018-01-26T15:33:10.450Z,10.91
2018-01-26T15:35:41.611Z,10.83
2018-01-26T15:38:12.728Z,10.78
2018-01-26T15:40:43.869Z,10.69
2018-01-26T15:43:16.203Z,10.55
2018-01-26T15:45:47.351Z,10.53
2018-01-26T15:48:18.468Z,10.47
2018-01-26T15:50:49.562Z,10.45
2018-01-26T15:53:20.655Z,10.45
2018-01-26T15:55:51.819Z,10.44
2018-01-26T15:58:22.908Z,10.46
2018-01-26T16:00:54.791Z,10.45
2018-01-26T16:03:25.843Z,10.40
2018-01-26T16:05:57.006Z,10.36
2018-01-26T16:08:28.131Z,10.36
2018-01-26T16:10:59.274Z,10.37
2018-01-26T16:13:30.378Z,10.36
2018-01-26T16:16:03.537Z,10.31
2018-01-26T16:18:34.612Z,10.19
2018-01-26T16:21:05.744Z,10.23
2018-01-26T16:23:36.917Z,10.28
2018-01-26T16:26:08.257Z,10.34
2018-01-26T16:28:39.367Z,10.38
2018-01-26T16:31:10.501Z,10.38
2018-01-26T16:33:41.568Z,10.36
2018-01-26T16:36:12.745Z,10.33
2018-01-26T16:38:43.808Z,10.31
2018-01-26T16:41:14.958Z,10.34
2018-01-26T16:43:46.033Z,10.39
2018-01-26T16:46:17.191Z,10.44
2018-01-26T16:48:48.287Z,10.46
2018-01-26T16:51:19.560Z,10.45
2018-01-26T16:53:50.631Z,10.41
2018-01-26T16:56:21.757Z,10.37
2018-01-26T16:58:52.847Z,10.34
2018-01-26T17:01:23.952Z,10.30
2018-01-26T17:03:55.024Z,10.32
2018-01-26T17:06:26.126Z,10.30
2018-01-26T17:08:57.195Z,10.26
2018-01-26T17:11:28.322Z,10.25
2018-01-26T17:13:59.368Z,10.23
2018-01-26T17:16:30.432Z,10.23
2018-01-26T17:19:01.530Z,10.23
2018-01-26T17:21:32.627Z,10.18
2018-01-26T17:24:03.729Z,10.15
2018-01-26T17:26:34.825Z,10.10
2018-01-26T17:29:05.948Z,9.97
2018-01-26T17:31:37.024Z,9.84
2018-01-26T17:34:08.097Z,9.69
2018-01-26T17:36:40.372Z,9.61
2018-01-26T17:39:11.524Z,9.54
2018-01-26T17:41:42.587Z,9.48
2018-01-26T17:44:13.907Z,9.44
2018-01-26T17:46:45.094Z,9.42
2018-01-26T17:49:16.208Z,9.39
2018-01-26T17:51:47.286Z,9.37
2018-01-26T17:54:18.362Z,9.33
2018-01-26T17:56:50.422Z,9.31
2018-01-26T17:59:21.569Z,9.28
2018-01-26T18:01:52.649Z,9.30
2018-01-26T18:04:23.792Z,9.28
2018-01-26T18:06:54.873Z,9.27
2018-01-26T18:09:25.978Z,9.25
2018-01-26T18:11:57.074Z,9.20
2018-01-26T18:14:28.205Z,9.19
2018-01-26T18:17:00.064Z,9.19
2018-01-26T18:19:31.241Z,9.18
2018-01-26T18:22:02.362Z,9.12
2018-01-26T18:24:33.455Z,9.05
2018-01-26T18:27:04.582Z,8.97
2018-01-26T18:29:35.688Z,8.94
2018-01-26T18:32:07.628Z,8.90
2018-01-26T18:34:38.742Z,8.87
2018-01-26T18:37:09.850Z,8.83
2018-01-26T18:39:41.068Z,8.78
2018-01-26T18:42:12.183Z,8.74
2018-01-26T18:44:43.291Z,8.72
2018-01-26T18:47:15.151Z,8.67
2018-01-26T18:49:46.259Z,8.62
2018-01-26T18:52:17.328Z,8.61
2018-01-26T18:54:48.450Z,8.59
2018-01-26T18:57:19.553Z,8.58
2018-01-26T18:59:50.657Z,8.59
2018-01-26T19:02:21.754Z,8.58
2018-01-26T19:04:52.857Z,8.60
2018-01-26T19:07:23.913Z,8.60
2018-01-26T19:09:55.000Z,8.56
2018-01-26T19:12:26.069Z,8.53
2018-01-26T19:14:57.334Z,8.47
2018-01-26T19:20:01.206Z,8.42
2018-01-26T19:22:32.285Z,8.42
2018-01-26T19:25:03.408Z,8.44
2018-01-26T19:27:34.521Z,8.47
2018-01-26T19:30:05.643Z,8.48
2018-01-26T19:32:36.742Z,8.47
2018-01-26T19:35:07.840Z,8.44
2018-01-26T19:37:38.936Z,8.42
2018-01-26T19:40:10.039Z,8.40
2018-01-26T19:42:41.103Z,8.33
2018-01-26T19:45:12.162Z,8.28
2018-01-26T19:47:43.230Z,8.24
2018-01-26T19:50:14.289Z,8.26
2018-01-26T19:52:45.967Z,8.25
2018-01-26T19:55:17.068Z,8.28
2018-01-26T19:57:48.159Z,8.32
2018-01-26T20:00:19.297Z,8.38
2018-01-26T20:02:50.417Z,8.43
2018-01-26T20:05:40.238Z,8.43
2018-01-26T20:08:26.610Z,8.36
2018-01-26T20:10:57.694Z,8.34
2018-01-26T20:13:28.813Z,8.38
2018-01-26T20:15:59.891Z,8.44
2018-01-26T20:18:30.995Z,8.48
2018-01-26T20:21:02.078Z,8.52
2018-01-26T20:23:33.176Z,8.50
2018-01-26T20:26:04.321Z,8.47
2018-01-26T20:28:35.385Z,8.43
2018-01-26T20:31:06.469Z,8.45
2018-01-26T20:33:37.594Z,8.45
2018-01-26T20:36:08.703Z,8.47
2018-01-26T20:38:40.387Z,8.49
2018-01-26T20:41:11.438Z,8.47
2018-01-26T20:43:42.539Z,8.46
2018-01-26T20:46:16.286Z,8.47
2018-01-26T20:48:47.420Z,8.47
2018-01-26T20:51:18.523Z,8.49
2018-01-26T20:53:49.593Z,8.44
2018-01-26T20:56:20.713Z,8.43
2018-01-26T20:58:51.758Z,8.46
2018-01-26T21:01:22.851Z,8.48
2018-01-26T21:03:53.890Z,8.50
2018-01-26T21:06:24.964Z,8.53
2018-01-26T21:08:56.041Z,8.56
2018-01-26T21:11:27.166Z,8.56
2018-01-26T21:13:58.220Z,8.55
2018-01-26T21:16:29.321Z,8.54
2018-01-26T21:19:00.412Z,8.52
2018-01-26T21:21:31.528Z,8.51
2018-01-26T21:24:02.634Z,8.48
2018-01-26T21:26:40.722Z,8.42
2018-01-26T21:29:11.846Z,8.34
2018-01-26T21:31:42.929Z,8.32
2018-01-26T21:34:14.062Z,8.28
2018-01-26T21:36:45.127Z,8.26
2018-01-26T21:39:16.184Z,8.22
2018-01-26T21:41:48.192Z,8.18
2018-01-26T21:44:19.268Z,8.13
2018-01-26T21:46:50.394Z,8.10
2018-01-26T21:49:21.449Z,8.05
2018-01-26T21:51:52.560Z,8.01
2018-01-26T21:54:23.651Z,8.01
2018-01-26T21:56:54.835Z,7.99
2018-01-26T21:59:25.899Z,7.96
2018-01-26T22:01:57.046Z,7.90
2018-01-26T22:04:34.052Z,7.87
2018-01-26T22:07:11.273Z,7.84
2018-01-26T22:09:42.346Z,7.83
2018-01-26T22:12:13.412Z,7.83
2018-01-26T22:14:44.568Z,7.83
2018-01-26T22:17:15.661Z,7.83
2018-01-26T22:19:46.761Z,7.84
2018-01-26T22:22:17.977Z,7.78
2018-01-26T22:24:49.034Z,7.73
2018-01-26T22:27:20.142Z,7.70
2018-01-26T22:29:51.215Z,7.69
2018-01-26T22:32:22.285Z,7.70
2018-01-26T22:34:53.347Z,7.70
2018-01-26T22:37:24.431Z,7.72
2018-01-26T22:39:55.516Z,7.70
2018-01-26T22:42:26.579Z,7.67
2018-01-26T22:44:57.647Z,7.64
2018-01-26T22:47:28.729Z,7.58
2018-01-26T22:49:59.814Z,7.53
2018-01-26T22:52:30.919Z,7.52
2018-01-26T22:55:01.986Z,7.51
2018-01-26T22:57:33.125Z,7.51
2018-01-26T23:00:04.234Z,7.51
2018-01-26T23:02:35.299Z,7.50
2018-01-26T23:05:06.462Z,7.44
2018-01-26T23:07:37.602Z,7.39
2018-01-26T23:10:08.711Z,7.41
2018-01-26T23:12:39.743Z,7.46
2018-01-26T23:15:10.789Z,7.52
2018-01-26T23:17:41.864Z,7.56
2018-01-26T23:20:12.959Z,7.63
2018-01-26T23:22:44.093Z,7.69
2018-01-26T23:25:15.122Z,7.77
2018-01-26T23:27:46.177Z,7.89
2018-01-26T23:30:17.227Z,8.05
2018-01-26T23:32:48.341Z,8.20
2018-01-26T23:35:19.400Z,8.31
2018-01-26T23:37:50.480Z,8.41
2018-01-26T23:40:21.586Z,8.47
2018-01-26T23:42:52.704Z,8.52
2018-01-26T23:45:23.785Z,8.61
2018-01-26T23:47:54.872Z,8.70
2018-01-26T23:50:25.919Z,8.77
2018-01-26T23:52:57.008Z,8.79
2018-01-26T23:55:28.058Z,8.82
2018-01-26T23:58:00.294Z,8.85
